createdAt,value
2022-08-03T00:02:17.210Z,3.30
2022-08-03T00:04:45.530Z,3.30
2022-08-03T00:07:13.047Z,3.55
2022-08-03T00:09:40.604Z,3.27
2022-08-03T00:12:08.481Z,3.28
2022-08-03T00:14:36.085Z,3.50
2022-08-03T00:17:04.087Z,3.55
2022-08-03T00:19:31.521Z,3.38
2022-08-03T00:21:58.978Z,3.57
2022-08-03T00:24:26.615Z,3.60
2022-08-03T00:26:53.979Z,3.80
2022-08-03T00:29:21.499Z,3.47
2022-08-03T00:31:59.396Z,4.78
2022-08-03T00:34:36.736Z,3.57
2022-08-03T00:37:16.386Z,3.45
2022-08-03T00:39:46.550Z,3.15
2022-08-03T00:42:14.608Z,3.97
2022-08-03T00:44:43.935Z,3.20
2022-08-03T00:47:12.262Z,3.37
2022-08-03T00:49:41.412Z,3.55
2022-08-03T00:52:13.231Z,3.47
2022-08-03T00:54:41.151Z,3.97
2022-08-03T00:57:09.318Z,3.65
2022-08-03T00:59:38.516Z,3.37
2022-08-03T01:02:06.823Z,3.60
2022-08-03T01:04:34.350Z,3.75
2022-08-03T01:07:10.961Z,3.33
2022-08-03T01:09:47.177Z,3.38
2022-08-03T01:12:19.727Z,3.57
2022-08-03T01:14:58.916Z,3.60
2022-08-03T01:17:33.567Z,3.75
2022-08-03T01:20:14.049Z,3.67
2022-08-03T01:22:41.421Z,3.65
2022-08-03T01:25:36.714Z,3.73
2022-08-03T01:28:28.379Z,3.75
2022-08-03T01:31:02.303Z,3.67
2022-08-03T01:33:41.261Z,3.70
2022-08-03T01:36:14.684Z,3.53
2022-08-03T01:38:47.612Z,3.50
2022-08-03T01:41:20.853Z,3.63
2022-08-03T01:43:59.039Z,3.78
2022-08-03T01:46:49.003Z,3.60
2022-08-03T01:49:17.934Z,3.88
2022-08-03T01:51:58.694Z,4.00
2022-08-03T01:54:40.960Z,4.63
2022-08-03T01:57:10.323Z,3.70
2022-08-03T01:59:39.282Z,3.97
2022-08-03T02:02:28.734Z,3.80
2022-08-03T02:04:59.058Z,3.67
2022-08-03T02:07:28.337Z,4.20
2022-08-03T02:09:57.139Z,3.90
2022-08-03T02:12:26.798Z,3.90
2022-08-03T02:14:56.807Z,4.15
2022-08-03T02:17:39.563Z,3.80
2022-08-03T02:20:11.883Z,3.85
2022-08-03T02:22:41.695Z,3.47
2022-08-03T02:25:10.979Z,3.60
2022-08-03T02:27:43.832Z,3.80
2022-08-03T02:30:14.026Z,4.63
2022-08-03T02:32:47.622Z,3.63
2022-08-03T02:35:17.454Z,3.85
2022-08-03T02:37:49.634Z,3.97
2022-08-03T02:40:19.580Z,3.88
2022-08-03T02:42:50.252Z,3.80
2022-08-03T02:45:20.399Z,3.65
2022-08-03T02:47:54.204Z,3.45
2022-08-03T02:50:23.944Z,3.90
2022-08-03T02:52:53.534Z,3.83
2022-08-03T02:55:23.373Z,4.00
2022-08-03T02:57:51.893Z,3.30
2022-08-03T03:00:28.045Z,3.40
2022-08-03T03:03:01.390Z,3.75
2022-08-03T03:05:55.110Z,3.45
2022-08-03T03:08:20.749Z,3.40
2022-08-03T03:10:55.999Z,3.70
2022-08-03T03:13:24.678Z,3.50
2022-08-03T03:15:53.227Z,3.30
2022-08-03T03:18:22.836Z,3.70
2022-08-03T03:20:52.985Z,3.50
2022-08-03T03:23:22.897Z,3.72
2022-08-03T03:25:50.637Z,3.45
2022-08-03T03:28:18.210Z,3.60
2022-08-03T03:30:52.561Z,3.28
2022-08-03T03:33:24.811Z,3.63
2022-08-03T03:35:52.520Z,3.65
2022-08-03T03:38:20.470Z,3.30
2022-08-03T03:40:48.603Z,3.50
2022-08-03T03:43:16.111Z,3.28
2022-08-03T03:45:43.963Z,4.20
2022-08-03T03:48:11.886Z,3.58
2022-08-03T03:50:41.314Z,3.53
2022-08-03T03:53:13.499Z,3.30
2022-08-03T03:55:59.421Z,4.00
2022-08-03T03:58:30.135Z,3.97
2022-08-03T04:00:57.549Z,4.00
2022-08-03T04:03:25.236Z,3.45
2022-08-03T04:06:11.115Z,3.45
2022-08-03T04:08:57.024Z,3.30
2022-08-03T04:11:37.074Z,4.23
2022-08-03T04:14:11.324Z,3.90
2022-08-03T04:16:45.000Z,3.60
2022-08-03T04:19:41.023Z,3.90
2022-08-03T04:22:12.471Z,3.65
2022-08-03T04:24:47.143Z,3.07
2022-08-03T04:27:18.260Z,3.55
2022-08-03T04:29:49.713Z,4.57
2022-08-03T04:32:20.575Z,3.50
2022-08-03T04:34:48.350Z,3.60
2022-08-03T04:37:25.857Z,3.77
2022-08-03T04:39:57.660Z,3.38
2022-08-03T04:42:26.217Z,3.58
2022-08-03T04:45:00.452Z,3.65
2022-08-03T04:47:29.934Z,3.40
2022-08-03T04:49:57.636Z,3.40
2022-08-03T04:52:25.275Z,3.55
2022-08-03T04:54:53.106Z,3.10
2022-08-03T04:57:23.201Z,3.30
2022-08-03T05:00:02.206Z,3.53
2022-08-03T05:02:32.028Z,3.20
2022-08-03T05:05:00.373Z,3.40
2022-08-03T05:07:35.576Z,3.47
2022-08-03T05:10:16.027Z,3.30
2022-08-03T05:12:56.918Z,3.50
2022-08-03T05:15:24.412Z,3.67
2022-08-03T05:17:52.068Z,3.28
2022-08-03T05:20:19.898Z,3.30
2022-08-03T05:22:47.714Z,3.20
2022-08-03T05:25:17.387Z,3.30
2022-08-03T05:27:48.241Z,3.10
2022-08-03T05:30:30.669Z,3.10
2022-08-03T05:33:03.377Z,3.50
2022-08-03T05:35:57.674Z,3.40
2022-08-03T05:38:23.725Z,3.40
2022-08-03T05:40:57.223Z,3.77
2022-08-03T05:43:43.244Z,3.05
2022-08-03T05:46:11.918Z,3.40
2022-08-03T05:48:40.498Z,3.53
2022-08-03T05:51:12.170Z,3.40
2022-08-03T05:53:41.146Z,3.10
2022-08-03T05:56:15.344Z,3.47
2022-08-03T05:58:45.010Z,3.38
2022-08-03T06:01:12.641Z,3.28
2022-08-03T06:03:40.123Z,3.55
2022-08-03T06:06:07.775Z,3.60
2022-08-03T06:08:35.699Z,3.80
2022-08-03T06:11:03.460Z,3.50
2022-08-03T06:13:30.955Z,3.90
2022-08-03T06:15:58.557Z,3.40
2022-08-03T06:18:25.962Z,3.43
2022-08-03T06:20:54.264Z,3.60
2022-08-03T06:23:23.848Z,4.05
2022-08-03T06:26:10.469Z,3.88
2022-08-03T06:28:52.777Z,3.33
2022-08-03T06:31:24.330Z,3.10
2022-08-03T06:34:32.237Z,3.33
2022-08-03T06:36:39.990Z,2.90
2022-08-03T06:39:08.124Z,2.97
2022-08-03T06:41:37.476Z,2.90
2022-08-03T06:44:08.893Z,2.70
2022-08-03T06:46:37.931Z,2.63
2022-08-03T06:49:05.568Z,2.10
2022-08-03T06:52:04.995Z,2.55
2022-08-03T06:54:22.553Z,2.50
2022-08-03T06:56:50.601Z,2.80
2022-08-03T07:00:09.094Z,2.60
2022-08-03T07:02:05.671Z,2.92
2022-08-03T07:04:33.649Z,3.50
2022-08-03T07:07:01.214Z,3.08
2022-08-03T07:09:28.778Z,3.40
2022-08-03T07:11:57.341Z,2.90
2022-08-03T07:14:24.925Z,3.08
2022-08-03T07:16:52.367Z,3.45
2022-08-03T07:19:19.872Z,3.28
2022-08-03T07:21:47.995Z,3.30
2022-08-03T07:24:15.402Z,3.20
2022-08-03T07:26:42.791Z,2.72
2022-08-03T07:29:15.080Z,2.80
2022-08-03T07:31:43.019Z,2.20
2022-08-03T07:34:10.420Z,2.20
2022-08-03T07:36:38.035Z,2.00
2022-08-03T07:39:15.771Z,2.17
2022-08-03T07:41:46.379Z,2.25
2022-08-03T07:44:14.394Z,2.95
2022-08-03T07:46:41.896Z,3.77
2022-08-03T07:49:09.374Z,3.75
2022-08-03T07:51:37.328Z,4.10
2022-08-03T07:54:05.546Z,4.38
2022-08-03T07:56:33.275Z,3.80
2022-08-03T07:59:00.832Z,3.83
2022-08-03T08:01:29.473Z,3.30
2022-08-03T08:03:56.915Z,3.20
2022-08-03T08:06:24.424Z,3.10
2022-08-03T08:08:52.671Z,4.15
2022-08-03T08:11:22.506Z,4.10
2022-08-03T08:13:49.911Z,3.85
2022-08-03T08:16:17.319Z,3.47
2022-08-03T08:18:44.753Z,4.13
2022-08-03T08:21:12.175Z,3.70
2022-08-03T08:23:43.794Z,4.00
2022-08-03T08:26:12.290Z,3.70
2022-08-03T08:28:40.011Z,4.18
2022-08-03T08:31:08.122Z,3.25
2022-08-03T08:34:01.432Z,3.80
2022-08-03T08:36:24.616Z,3.43
2022-08-03T08:38:52.010Z,3.85
2022-08-03T08:41:19.726Z,3.88
2022-08-03T08:43:47.308Z,3.58
2022-08-03T08:46:23.477Z,3.80
2022-08-03T08:48:53.303Z,4.07
2022-08-03T08:51:23.010Z,4.10
2022-08-03T08:53:53.272Z,4.28
2022-08-03T08:56:22.795Z,3.60
2022-08-03T08:58:54.621Z,4.05
2022-08-03T09:01:23.334Z,3.97
2022-08-03T09:03:51.621Z,3.70
2022-08-03T09:06:19.216Z,3.80
2022-08-03T09:08:46.748Z,3.70
2022-08-03T09:11:14.550Z,4.10
2022-08-03T09:13:42.511Z,4.00
2022-08-03T09:16:19.345Z,3.75
2022-08-03T09:18:52.297Z,3.80
2022-08-03T09:21:32.550Z,4.30
2022-08-03T09:24:04.212Z,3.83
2022-08-03T09:26:34.803Z,4.10
2022-08-03T09:29:13.463Z,3.70
2022-08-03T09:31:46.570Z,3.90
2022-08-03T09:34:18.112Z,3.85
2022-08-03T09:36:50.806Z,4.00
2022-08-03T09:39:40.399Z,3.67
2022-08-03T09:42:18.287Z,4.20
2022-08-03T09:44:47.880Z,4.20
2022-08-03T09:47:18.308Z,3.72
2022-08-03T09:49:59.058Z,3.50
2022-08-03T09:52:49.414Z,4.30
2022-08-03T09:56:32.970Z,4.07
2022-08-03T09:58:10.982Z,3.75
2022-08-03T10:01:08.230Z,3.70
2022-08-03T10:04:03.803Z,4.00
2022-08-03T10:06:32.295Z,4.00
2022-08-03T10:09:16.843Z,4.10
2022-08-03T10:11:44.879Z,3.75
2022-08-03T10:14:19.917Z,4.10
2022-08-03T10:16:48.760Z,4.45
2022-08-03T10:19:17.196Z,4.60
2022-08-03T10:21:51.582Z,4.30
2022-08-03T10:24:27.634Z,4.28
2022-08-03T10:27:03.060Z,4.72
2022-08-03T10:29:43.961Z,4.80
2022-08-03T10:32:19.421Z,3.90
2022-08-03T10:34:48.200Z,4.28
2022-08-03T10:37:17.923Z,4.13
2022-08-03T10:39:54.675Z,4.25
2022-08-03T10:42:26.440Z,4.15
2022-08-03T10:45:13.724Z,3.67
2022-08-03T10:47:41.583Z,3.70
2022-08-03T10:50:10.108Z,4.00
2022-08-03T10:52:57.667Z,3.60
2022-08-03T10:55:58.733Z,3.90
2022-08-03T10:58:53.373Z,3.70
2022-08-03T11:02:08.548Z,4.15
2022-08-03T11:04:36.068Z,3.50
2022-08-03T11:07:19.893Z,3.85
2022-08-03T11:09:52.836Z,4.38
2022-08-03T11:12:34.187Z,3.60
2022-08-03T11:15:10.927Z,3.97
2022-08-03T11:17:46.136Z,3.70
2022-08-03T11:20:54.920Z,3.67
2022-08-03T11:24:02.643Z,3.10
2022-08-03T11:26:33.224Z,4.03
2022-08-03T11:29:31.905Z,3.67
2022-08-03T11:32:00.127Z,3.70
2022-08-03T11:34:27.703Z,3.88
2022-08-03T11:37:26.328Z,3.50
2022-08-03T11:39:57.501Z,3.70
2022-08-03T11:42:25.053Z,4.35
2022-08-03T11:44:57.890Z,4.25
2022-08-03T11:47:30.131Z,3.88
2022-08-03T11:50:01.048Z,3.85
2022-08-03T11:52:35.830Z,4.07
2022-08-03T11:55:08.805Z,3.70
2022-08-03T11:59:18.874Z,3.83
2022-08-03T12:00:32.645Z,4.10
2022-08-03T12:03:03.975Z,3.65
2022-08-03T12:05:38.511Z,3.60
2022-08-03T12:08:08.991Z,3.40
2022-08-03T12:10:37.360Z,3.35
2022-08-03T12:14:26.890Z,3.35
2022-08-03T12:15:57.566Z,3.55
2022-08-03T12:18:25.625Z,3.70
2022-08-03T12:21:03.649Z,3.47
2022-08-03T12:23:34.806Z,3.83
2022-08-03T12:26:10.227Z,3.72
2022-08-03T12:28:38.952Z,3.50
2022-08-03T12:31:09.705Z,3.97
2022-08-03T12:34:04.476Z,3.60
2022-08-03T12:36:34.857Z,3.58
2022-08-03T12:39:07.853Z,3.42
2022-08-03T12:41:38.073Z,3.40
2022-08-03T12:44:07.684Z,3.57
2022-08-03T12:46:37.460Z,3.38
2022-08-03T12:49:07.099Z,3.38
2022-08-03T12:51:57.739Z,3.03
2022-08-03T12:54:28.260Z,3.35
2022-08-03T12:57:04.399Z,3.10
2022-08-03T12:59:49.855Z,3.80
2022-08-03T13:02:28.933Z,3.20
2022-08-03T13:04:56.908Z,3.50
2022-08-03T13:07:24.557Z,3.30
2022-08-03T13:09:57.016Z,3.47
2022-08-03T13:12:28.075Z,3.42
2022-08-03T13:14:58.030Z,3.10
2022-08-03T13:17:26.360Z,3.20
2022-08-03T13:19:54.032Z,3.10
2022-08-03T13:22:23.765Z,2.80
2022-08-03T13:24:58.790Z,2.92
2022-08-03T13:28:04.198Z,2.90
2022-08-03T13:30:25.008Z,2.90
2022-08-03T13:32:58.987Z,3.10
2022-08-03T13:35:26.776Z,3.20
2022-08-03T13:37:54.235Z,3.20
2022-08-03T13:40:23.655Z,2.97
2022-08-03T13:42:57.631Z,2.78
2022-08-03T13:45:25.142Z,2.95
2022-08-03T13:47:52.608Z,2.67
2022-08-03T13:50:20.160Z,2.88
2022-08-03T13:52:48.453Z,2.80
2022-08-03T13:55:15.875Z,2.97
2022-08-03T13:58:03.079Z,2.67
2022-08-03T14:00:31.288Z,3.00
2022-08-03T14:03:09.522Z,2.65
2022-08-03T14:05:40.580Z,3.20
2022-08-03T14:08:08.669Z,3.08
2022-08-03T14:10:38.993Z,3.22
2022-08-03T14:13:06.802Z,3.00
2022-08-03T14:15:38.358Z,3.30
2022-08-03T14:18:12.780Z,3.00
2022-08-03T14:20:48.635Z,3.22
2022-08-03T14:23:19.569Z,3.10
2022-08-03T14:25:51.869Z,2.87
2022-08-03T14:28:25.303Z,2.83
2022-08-03T14:30:54.229Z,3.05
2022-08-03T14:33:22.159Z,3.00
2022-08-03T14:35:50.530Z,3.20
2022-08-03T14:38:18.445Z,3.23
2022-08-03T14:40:46.604Z,2.70
2022-08-03T14:43:14.896Z,3.10
2022-08-03T14:45:42.424Z,3.17
2022-08-03T14:50:30.726Z,3.13
2022-08-03T14:50:57.932Z,2.73
2022-08-03T14:53:25.456Z,3.00
2022-08-03T14:55:53.866Z,2.72
2022-08-03T14:58:30.521Z,2.88
2022-08-03T15:00:58.687Z,3.20
2022-08-03T15:03:26.555Z,2.77
2022-08-03T15:05:56.332Z,2.85
2022-08-03T15:08:25.190Z,2.58
2022-08-03T15:10:56.348Z,2.80
2022-08-03T15:13:25.604Z,2.83
2022-08-03T15:15:54.211Z,2.67
2022-08-03T15:18:23.432Z,2.70
2022-08-03T15:20:51.140Z,2.30
2022-08-03T15:23:19.309Z,2.35
2022-08-03T15:26:06.455Z,2.22
2022-08-03T15:28:37.402Z,2.67
2022-08-03T15:31:06.842Z,2.40
2022-08-03T15:33:35.182Z,2.45
2022-08-03T15:36:03.944Z,2.58
2022-08-03T15:38:31.626Z,2.50
2022-08-03T15:40:59.325Z,2.30
2022-08-03T15:43:26.855Z,2.65
2022-08-03T15:46:26.451Z,2.92
2022-08-03T15:48:41.930Z,2.60
2022-08-03T15:51:09.648Z,2.75
2022-08-03T15:53:37.923Z,2.43
2022-08-03T15:56:11.389Z,2.40
2022-08-03T15:59:09.685Z,2.80
2022-08-03T16:01:29.509Z,2.50
2022-08-03T16:03:57.270Z,2.60
2022-08-03T16:06:29.740Z,2.93
2022-08-03T16:09:23.949Z,2.70
2022-08-03T16:11:56.055Z,2.88
2022-08-03T16:14:32.629Z,2.90
2022-08-03T16:17:05.832Z,2.90
2022-08-03T16:19:33.531Z,2.60
2022-08-03T16:22:01.140Z,2.90
2022-08-03T16:24:28.613Z,2.33
2022-08-03T16:26:56.815Z,2.80
2022-08-03T16:29:24.428Z,2.80
2022-08-03T16:31:52.732Z,2.90
2022-08-03T16:34:21.357Z,2.78
2022-08-03T16:36:49.531Z,2.92
2022-08-03T16:39:17.042Z,3.10
2022-08-03T16:41:54.315Z,2.60
2022-08-03T16:44:32.109Z,3.20
2022-08-03T16:47:00.049Z,2.90
2022-08-03T16:49:53.743Z,3.03
2022-08-03T16:52:16.802Z,3.00
2022-08-03T16:54:53.175Z,2.80
2022-08-03T16:57:56.572Z,2.80
2022-08-03T17:00:12.200Z,2.63
2022-08-03T17:03:01.273Z,2.90
2022-08-03T17:05:43.875Z,2.70
2022-08-03T17:08:15.648Z,3.13
2022-08-03T17:10:45.377Z,3.00
2022-08-03T17:13:39.587Z,3.10
2022-08-03T17:16:04.516Z,3.20
2022-08-03T17:18:39.181Z,3.08
2022-08-03T17:21:10.839Z,2.78
2022-08-03T17:23:49.370Z,3.03
2022-08-03T17:26:22.050Z,3.13
2022-08-03T17:28:56.364Z,3.20
2022-08-03T17:31:32.233Z,3.20
2022-08-03T17:34:13.538Z,3.30
2022-08-03T17:37:03.100Z,3.40
2022-08-03T17:39:55.860Z,3.35
2022-08-03T17:42:38.761Z,3.63
2022-08-03T17:45:06.716Z,3.63
2022-08-03T17:47:42.443Z,3.45
2022-08-03T17:50:24.411Z,3.20
2022-08-03T17:53:07.655Z,2.97
2022-08-03T17:55:59.121Z,2.83
2022-08-03T17:58:43.749Z,3.05
2022-08-03T18:02:03.695Z,3.10
2022-08-03T18:04:29.803Z,3.37
2022-08-03T18:07:16.648Z,3.50
2022-08-03T18:10:05.316Z,2.88
2022-08-03T18:13:01.160Z,2.60
2022-08-03T18:15:42.940Z,2.72
2022-08-03T18:18:11.838Z,2.77
2022-08-03T18:20:42.081Z,2.40
2022-08-03T18:23:24.846Z,2.90
2022-08-03T18:26:02.843Z,2.42
2022-08-03T18:28:34.218Z,2.50
2022-08-03T18:31:05.662Z,2.67
2022-08-03T18:34:19.924Z,3.00
2022-08-03T18:36:29.561Z,3.35
2022-08-03T18:39:02.550Z,2.72
2022-08-03T18:41:33.380Z,3.08
2022-08-03T18:44:09.066Z,3.17
2022-08-03T18:47:51.003Z,3.95
2022-08-03T18:50:31.301Z,3.35
2022-08-03T18:53:19.942Z,2.92
2022-08-03T18:56:18.855Z,3.10
2022-08-03T18:58:54.575Z,2.97
2022-08-03T19:01:58.617Z,3.30
2022-08-03T19:04:31.822Z,3.03
2022-08-03T19:07:08.117Z,3.08
2022-08-03T19:09:41.618Z,3.00
2022-08-03T19:12:37.871Z,3.30
2022-08-03T19:15:13.405Z,3.17
2022-08-03T19:17:53.153Z,3.15
2022-08-03T19:20:31.136Z,3.20
2022-08-03T19:23:00.267Z,3.35
2022-08-03T19:25:35.186Z,2.47
2022-08-03T19:28:06.191Z,2.40
2022-08-03T19:33:30.010Z,2.42
2022-08-03T19:35:58.015Z,2.55
2022-08-03T19:38:29.808Z,2.60
2022-08-03T19:40:59.975Z,2.60
2022-08-03T19:43:49.571Z,2.78
2022-08-03T19:46:30.346Z,2.90
2022-08-03T19:49:14.681Z,3.10
2022-08-03T19:52:01.366Z,3.50
2022-08-03T19:54:53.872Z,3.78
2022-08-03T19:57:25.079Z,3.90
2022-08-03T19:59:54.814Z,3.80
2022-08-03T20:02:27.087Z,4.25
2022-08-03T20:05:00.599Z,4.57
2022-08-03T20:07:32.285Z,5.15
2022-08-03T20:10:02.054Z,7.78
2022-08-03T20:12:33.197Z,8.23
2022-08-03T20:15:07.170Z,4.88
2022-08-03T20:17:55.299Z,6.00
2022-08-03T20:20:27.942Z,4.38
2022-08-03T20:22:58.373Z,5.43
2022-08-03T20:25:38.719Z,4.78
2022-08-03T20:28:13.896Z,4.00
2022-08-03T20:30:44.485Z,4.10
2022-08-03T20:33:18.802Z,4.00
2022-08-03T20:35:49.754Z,4.57
2022-08-03T20:38:27.051Z,4.22
2022-08-03T20:40:56.600Z,4.57
2022-08-03T20:43:27.488Z,4.67
2022-08-03T20:46:00.915Z,4.47
2022-08-03T20:48:48.793Z,4.22
2022-08-03T20:51:20.121Z,3.80
2022-08-03T20:54:20.882Z,3.95
2022-08-03T20:56:54.409Z,4.30
2022-08-03T20:59:22.370Z,3.90
2022-08-03T21:01:51.662Z,4.40
2022-08-03T21:04:22.443Z,4.25
2022-08-03T21:06:57.525Z,4.40
2022-08-03T21:09:33.608Z,4.67
2022-08-03T21:12:15.468Z,4.70
2022-08-03T21:13:02.301Z,2.28
2022-08-03T21:14:57.074Z,4.45
2022-08-03T21:17:39.887Z,4.20
2022-08-03T21:20:12.819Z,3.97
2022-08-03T21:22:46.379Z,4.67
2022-08-03T21:25:16.361Z,4.50
2022-08-03T21:27:44.237Z,3.83
2022-08-03T21:30:12.154Z,3.95
2022-08-03T21:32:40.715Z,4.15
2022-08-03T21:35:11.566Z,3.93
2022-08-03T21:37:43.578Z,3.95
2022-08-03T21:40:12.781Z,3.90
2022-08-03T21:42:41.415Z,3.92
2022-08-03T21:45:16.901Z,3.55
2022-08-03T21:47:46.252Z,3.40
2022-08-03T21:50:14.044Z,3.35
2022-08-03T21:52:44.107Z,3.53
2022-08-03T21:55:20.642Z,3.35
2022-08-03T21:57:53.285Z,3.00
2022-08-03T22:00:23.401Z,3.00
2022-08-03T22:02:57.164Z,3.28
2022-08-03T22:05:43.036Z,3.10
2022-08-03T22:08:13.643Z,2.90
2022-08-03T22:10:44.181Z,3.40
2022-08-03T22:13:14.391Z,2.80
2022-08-03T22:15:42.083Z,3.00
2022-08-03T22:18:10.453Z,3.00
2022-08-03T22:20:38.085Z,3.28
2022-08-03T22:23:07.966Z,3.22
2022-08-03T22:25:39.693Z,3.43
2022-08-03T22:28:12.014Z,3.30
2022-08-03T22:30:40.899Z,3.78
2022-08-03T22:33:11.546Z,3.60
2022-08-03T22:35:50.753Z,3.55
2022-08-03T22:38:19.091Z,3.63
2022-08-03T22:40:50.099Z,3.85
2022-08-03T22:43:17.659Z,3.80
2022-08-03T22:46:09.528Z,3.90
2022-08-03T22:48:40.945Z,3.75
2022-08-03T22:51:09.842Z,3.90
2022-08-03T22:53:38.636Z,3.60
2022-08-03T22:56:06.907Z,3.83
2022-08-03T22:58:34.614Z,3.80
2022-08-03T23:01:07.061Z,3.72
2022-08-03T23:03:58.634Z,3.77
2022-08-03T23:06:27.424Z,3.58
2022-08-03T23:08:55.732Z,3.53
2022-08-03T23:11:24.711Z,3.55
2022-08-03T23:13:54.735Z,3.38
2022-08-03T23:16:29.046Z,3.80
2022-08-03T23:18:59.885Z,3.40
2022-08-03T23:21:59.947Z,3.22
2022-08-03T23:24:30.532Z,3.50
2022-08-03T23:26:59.428Z,3.70
2022-08-03T23:29:28.679Z,3.70
2022-08-03T23:31:57.816Z,3.83
2022-08-03T23:34:44.952Z,3.50
2022-08-03T23:37:15.602Z,3.92
2022-08-03T23:39:47.907Z,3.63
2022-08-03T23:42:18.209Z,3.70
2022-08-03T23:44:46.573Z,3.80
2022-08-03T23:47:14.846Z,3.30
2022-08-03T23:49:42.636Z,3.80
2022-08-03T23:52:24.334Z,4.07
2022-08-03T23:55:10.902Z,3.80
2022-08-03T23:58:10.760Z,3.83
